Flight Track Log - Related Links

Times and Time Zones

All times are in EDT time to prevent confusion due to time zone crossing. See the LOF3377 flight status page for this flight to view local times or setup timezone preferences in your user account.

Time Position Orientation Groundspeed Altitude Reporting Facility
EDT Latitude Longitude Course Direction KTS km/h feet Rate Location/Type
Tue 16:38:19 39.0333 -84.6667 351° North 180 333 1.300  Level Cincinnati TRACON
Tue 16:39:01 39.0167 -84.7000 237° Southwest 187 346 2.800 2.059 Climbing Cincinnati TRACON
Tue 16:40:01 39.0500 -84.7500 311° West 260 481 4.800 2.450 Climbing Cincinnati TRACON
Tue 16:41:01 39.1167 -84.7833 339° North 263 488 7.700 2.217 Climbing Cincinnati TRACON
Tue 16:43:00 39.0657 -84.8931 351° North  Level FlightAware Approximate
Tue 16:43:24 39.2900 -84.8836 336° Northwest 300 555 12.300  Level Indianapolis Center
Tue 16:44:26 39.3769 -84.9297 338° Northwest 333 616 13.800 1.452 Climbing Indianapolis Center
Tue 16:45:28 39.4686 -84.9792 337° Northwest 350 649 15.300 1.597 Climbing Indianapolis Center
Tue 16:46:30 39.5742 -85.0533 332° Northwest 370 686 17.100 1.597 Climbing Indianapolis Center
Tue 16:47:32 39.6528 -85.1453 318° Northwest 383 710 18.600 1.392 Climbing Indianapolis Center
Tue 16:48:35 39.7311 -85.2397 317° Northwest 385 713 20.000 1.248 Climbing Indianapolis Center
Tue 16:49:37 39.8131 -85.3356 318° Northwest 396 734 21.200 968 Climbing Indianapolis Center
Tue 16:50:39 39.8975 -85.4328 319° Northwest 405 750 22.000 339 Climbing Indianapolis Center
Tue 16:51:41 40.0058 -85.5358 324° Northwest 405 750 21.900 -48 Descending Indianapolis Center
Tue 16:52:43 40.0911 -85.6317 319° Northwest 408 756 21.900  Level Indianapolis Center
Tue 16:53:45 40.1767 -85.7317 318° Northwest 415 769 21.900  Level Indianapolis Center
Tue 16:54:42 40.2608 -85.8314 318° Northwest 416 771 21.900  Level Chicago Center
Tue 16:55:44 40.3467 -85.9356 317° Northwest 423 784 21.900  Level Chicago Center
Tue 16:56:46 40.4328 -86.0408 317° Northwest 425 787 21.900  Level Chicago Center
Tue 16:57:49 40.5367 -86.1653 318° Northwest 425 787 21.900  Level Chicago Center
Tue 16:58:51 40.6233 -86.2703 317° Northwest 426 789 21.900  Level Chicago Center
Tue 16:59:53 40.7147 -86.3806 318° Northwest 427 790 21.900 -387 Level Chicago Center
Tue 17:00:55 40.8011 -86.4906 316° Northwest 431 798 21.100 -1.258 Descending Chicago Center
Tue 17:01:57 40.8853 -86.5942 317° Northwest 417 772 19.300 -1.790 Descending Chicago Center
Tue 17:02:59 40.9675 -86.6953 317° Northwest 405 750 17.400 -1.887 Descending Chicago Center
Tue 17:04:01 41.0608 -86.8108 317° Northwest 392 726 15.400 -1.839 Descending Chicago Center
Tue 17:05:03 41.1342 -86.9039 316° Northwest 371 687 13.600 -1.790 Descending Chicago Center
Tue 17:06:05 41.2064 -86.9944 317° Northwest 361 668 11.700 -1.258 Descending Chicago Center
Tue 17:07:07 41.2778 -87.0853 316° Northwest 359 665 11.000 -339 Descending Chicago Center
Tue 17:08:09 41.3475 -87.1711 317° Northwest 348 644 11.000  Level Chicago Center
Tue 17:08:56 41.4167 -87.2500 319° Northwest 364 674 11.000 -112 Level Chicago TRACON
Tue 17:09:56 41.4833 -87.3500 312° West 369 684 10.800 -450 Descending Chicago TRACON
Tue 17:10:56 41.5667 -87.4333 323° Northwest 349 647 10.100 -600 Descending Chicago TRACON
Tue 17:11:16 41.5847 -87.4483 328° Northwest 349 647 10.000 -73 Descending Chicago Center
Tue 17:12:18 41.6578 -87.5292 320° Northwest 345 639 10.000 -48 Level Chicago Center
Tue 17:13:20 41.7278 -87.6078 320° Northwest 332 615 9.900 -1.269 Descending Chicago Center
Tue 17:14:02 41.7833 -87.6667 322° Northwest 262 486 7.800 -1.706 Descending Chicago TRACON
Tue 17:15:02 41.8167 -87.7333 304° West 275 509 7.000 -417 Descending Chicago TRACON
Tue 17:15:57 41.8167 -87.8333 270° West 284 526 7.000 -446 Level Chicago TRACON
Tue 17:17:03 41.8000 -87.9333 257° West 234 433 6.100 -923 Descending Chicago TRACON
Tue 17:17:28 41.7864 -87.9500 222° Southwest 254 470 5.600 -1.448 Descending Chicago Center
Tue 17:18:30 41.8164 -88.0369 295° West 229 425 4.000 -1.161 Descending Chicago Center
Tue 17:19:32 41.8550 -88.0172 21° North 195 360 3.200 -848 Descending Chicago Center
Tue 17:20:09 41.8833 -87.9833 42° Northeast 180 333 2.600 -973 Descending Chicago TRACON

Login

Don't have an account? Register now (free) for customized features, flight alerts, and more!